sensor_id;sensor_type;location;lat;lon;timestamp;pressure;altitude;pressure_sealevel;temperature;humidity
9281;BME280;4679;47.966;7.958;2022-10-16T06:04:23;97114.63;;;14.28;90.95
9281;BME280;4679;47.966;7.958;2022-10-16T06:06:26;97111.97;;;14.28;90.76
9281;BME280;4679;47.966;7.958;2022-10-16T06:08:28;97127.19;;;14.27;90.78
9281;BME280;4679;47.966;7.958;2022-10-16T06:10:29;97125.84;;;14.25;90.63
9281;BME280;4679;47.966;7.958;2022-10-16T06:12:31;97108.75;;;14.31;90.61
9281;BME280;4679;47.966;7.958;2022-10-16T06:14:33;97118.13;;;14.43;90.74
9281;BME280;4679;47.966;7.958;2022-10-16T06:16:35;97121.31;;;14.40;90.26
9281;BME280;4679;47.966;7.958;2022-10-16T06:18:37;97120.75;;;14.38;90.64
9281;BME280;4679;47.966;7.958;2022-10-16T06:20:40;97122.66;;;14.33;90.58
9281;BME280;4679;47.966;7.958;2022-10-16T06:22:42;97129.84;;;14.32;90.64
9281;BME280;4679;47.966;7.958;2022-10-16T06:24:44;97132.25;;;14.34;90.20
9281;BME280;4679;47.966;7.958;2022-10-16T06:26:46;97133.88;;;14.35;90.50
9281;BME280;4679;47.966;7.958;2022-10-16T06:28:48;97135.75;;;14.45;90.15
9281;BME280;4679;47.966;7.958;2022-10-16T06:30:58;97146.16;;;14.56;90.48
9281;BME280;4679;47.966;7.958;2022-10-16T06:33:00;97153.38;;;14.56;90.16
9281;BME280;4679;47.966;7.958;2022-10-16T06:35:02;97164.31;;;14.59;90.39
9281;BME280;4679;47.966;7.958;2022-10-16T06:37:05;97167.78;;;14.60;90.32
9281;BME280;4679;47.966;7.958;2022-10-16T06:39:07;97161.09;;;14.57;90.43
9281;BME280;4679;47.966;7.958;2022-10-16T06:41:11;97168.31;;;14.62;89.90
9281;BME280;4679;47.966;7.958;2022-10-16T06:43:13;97167.78;;;14.70;90.23
9281;BME280;4679;47.966;7.958;2022-10-16T06:45:15;97173.41;;;14.78;90.18
9281;BME280;4679;47.966;7.958;2022-10-16T06:47:17;97177.66;;;14.85;89.79
9281;BME280;4679;47.966;7.958;2022-10-16T06:49:19;97180.06;;;14.91;89.50
9281;BME280;4679;47.966;7.958;2022-10-16T06:51:24;97168.56;;;14.91;89.30
9281;BME280;4679;47.966;7.958;2022-10-16T06:53:30;97176.03;;;14.94;89.59
9281;BME280;4679;47.966;7.958;2022-10-16T06:55:32;97170.69;;;14.94;89.61
9281;BME280;4679;47.966;7.958;2022-10-16T06:57:34;97156.25;;;15.00;89.30
9281;BME280;4679;47.966;7.958;2022-10-16T06:59:35;97177.09;;;14.98;89.31
9281;BME280;4679;47.966;7.958;2022-10-16T07:01:37;97174.97;;;14.95;89.53
9281;BME280;4679;47.966;7.958;2022-10-16T07:03:40;97183.00;;;14.95;89.19
9281;BME280;4679;47.966;7.958;2022-10-16T07:05:43;97188.88;;;14.92;89.08
9281;BME280;4679;47.966;7.958;2022-10-16T07:07:44;97187.53;;;14.89;89.86
9281;BME280;4679;47.966;7.958;2022-10-16T07:09:47;97200.91;;;14.89;89.52
9281;BME280;4679;47.966;7.958;2022-10-16T07:11:49;97208.38;;;14.87;89.46
9281;BME280;4679;47.966;7.958;2022-10-16T07:13:51;97205.69;;;14.87;89.49
9281;BME280;4679;47.966;7.958;2022-10-16T07:15:53;97212.09;;;14.86;89.49
9281;BME280;4679;47.966;7.958;2022-10-16T07:17:54;97213.72;;;14.87;89.48
9281;BME280;4679;47.966;7.958;2022-10-16T07:19:56;97219.34;;;14.91;89.28
9281;BME280;4679;47.966;7.958;2022-10-16T07:21:58;97221.47;;;14.94;89.14
9281;BME280;4679;47.966;7.958;2022-10-16T07:24:00;97219.59;;;14.94;89.02
9281;BME280;4679;47.966;7.958;2022-10-16T07:26:04;97225.75;;;14.95;89.24
9281;BME280;4679;47.966;7.958;2022-10-16T07:28:06;97227.34;;;14.96;89.53
9281;BME280;4679;47.966;7.958;2022-10-16T07:30:08;97223.63;;;14.97;89.71
9281;BME280;4679;47.966;7.958;2022-10-16T07:34:04;97234.81;;;15.09;88.99
9281;BME280;4679;47.966;7.958;2022-10-16T07:36:06;97239.91;;;15.10;88.89
9281;BME280;4679;47.966;7.958;2022-10-16T07:38:07;97234.28;;;15.12;89.27
9281;BME280;4679;47.966;7.958;2022-10-16T07:40:10;97234.78;;;15.14;88.70
9281;BME280;4679;47.966;7.958;2022-10-16T07:42:11;97246.56;;;15.13;89.21
9281;BME280;4679;47.966;7.958;2022-10-16T07:44:13;97254.03;;;15.16;89.22
9281;BME280;4679;47.966;7.958;2022-10-16T07:46:15;97249.50;;;15.17;89.14
9281;BME280;4679;47.966;7.958;2022-10-16T07:48:17;97255.91;;;15.21;89.17
9281;BME280;4679;47.966;7.958;2022-10-16T07:50:21;97255.66;;;15.27;88.89
9281;BME280;4679;47.966;7.958;2022-10-16T07:52:22;97251.84;;;15.43;88.64
9281;BME280;4679;47.966;7.958;2022-10-16T07:54:24;97260.94;;;15.53;88.27
9281;BME280;4679;47.966;7.958;2022-10-16T07:56:26;97259.06;;;15.63;88.29
9281;BME280;4679;47.966;7.958;2022-10-16T07:58:28;97265.69;;;15.76;88.73
9281;BME280;4679;47.966;7.958;2022-10-16T08:00:30;97267.03;;;15.78;88.29
9281;BME280;4679;47.966;7.958;2022-10-16T08:02:31;97272.38;;;15.78;88.29
9281;BME280;4679;47.966;7.958;2022-10-16T08:04:33;97272.38;;;15.78;88.56
9281;BME280;4679;47.966;7.958;2022-10-16T08:06:37;97278.00;;;15.82;88.03
9281;BME280;4679;47.966;7.958;2022-10-16T08:08:39;97273.97;;;15.85;87.83
9281;BME280;4679;47.966;7.958;2022-10-16T08:10:41;97272.63;;;15.87;88.00
9281;BME280;4679;47.966;7.958;2022-10-16T08:12:43;97272.88;;;15.91;88.14
9281;BME280;4679;47.966;7.958;2022-10-16T08:14:45;97279.00;;;15.96;87.63
9281;BME280;4679;47.966;7.958;2022-10-16T08:16:46;97278.75;;;15.98;87.83
9281;BME280;4679;47.966;7.958;2022-10-16T08:18:48;97278.72;;;16.03;87.96
9281;BME280;4679;47.966;7.958;2022-10-16T08:20:55;97276.28;;;16.06;88.16
9281;BME280;4679;47.966;7.958;2022-10-16T08:23:00;97280.03;;;16.10;87.79
9281;BME280;4679;47.966;7.958;2022-10-16T08:25:02;97293.94;;;16.12;88.00
9281;BME280;4679;47.966;7.958;2022-10-16T08:27:03;97288.31;;;16.14;88.04
9281;BME280;4679;47.966;7.958;2022-10-16T08:29:05;97287.50;;;16.18;87.62
9281;BME280;4679;47.966;7.958;2022-10-16T08:31:08;97292.53;;;16.25;87.80
9281;BME280;4679;47.966;7.958;2022-10-16T08:33:10;97289.84;;;16.30;87.40
9281;BME280;4679;47.966;7.958;2022-10-16T08:35:12;97290.59;;;16.36;87.27
9281;BME280;4679;47.966;7.958;2022-10-16T08:37:14;97295.41;;;16.39;87.22
9281;BME280;4679;47.966;7.958;2022-10-16T08:39:18;97287.63;;;16.42;87.30
9281;BME280;4679;47.966;7.958;2022-10-16T08:44:27;97290.44;;;16.71;86.67
9281;BME280;4679;47.966;7.958;2022-10-16T08:46:40;97281.09;;;17.03;86.06
9281;BME280;4679;47.966;7.958;2022-10-16T08:48:49;97278.91;;;17.10;85.68
9281;BME280;4679;47.966;7.958;2022-10-16T08:50:52;97278.91;;;17.10;86.03
9281;BME280;4679;47.966;7.958;2022-10-16T08:52:55;97284.53;;;17.08;85.78
9281;BME280;4679;47.966;7.958;2022-10-16T08:54:59;97286.13;;;17.09;86.41
9281;BME280;4679;47.966;7.958;2022-10-16T08:57:11;97284.25;;;17.10;85.80
9281;BME280;4679;47.966;7.958;2022-10-16T08:59:13;97283.41;;;17.14;85.62
9281;BME280;4679;47.966;7.958;2022-10-16T09:01:19;97279.34;;;17.17;85.88
9281;BME280;4679;47.966;7.958;2022-10-16T09:03:32;97276.16;;;17.15;86.03
9281;BME280;4679;47.966;7.958;2022-10-16T09:05:52;97283.06;;;17.21;85.34
9281;BME280;4679;47.966;7.958;2022-10-16T09:08:03;97290.56;;;17.24;85.87
9281;BME280;4679;47.966;7.958;2022-10-16T09:10:20;97290.16;;;17.41;85.22
9281;BME280;4679;47.966;7.958;2022-10-16T09:12:31;97282.78;;;17.51;85.04
9281;BME280;4679;47.966;7.958;2022-10-16T09:14:50;97287.50;;;17.65;84.66
9281;BME280;4679;47.966;7.958;2022-10-16T09:16:58;97289.28;;;17.74;84.12
9281;BME280;4679;47.966;7.958;2022-10-16T09:19:09;97291.34;;;17.82;83.99
9281;BME280;4679;47.966;7.958;2022-10-16T09:21:18;97291.00;;;17.89;83.78
9281;BME280;4679;47.966;7.958;2022-10-16T09:23:31;97286.38;;;17.95;83.67
9281;BME280;4679;47.966;7.958;2022-10-16T09:25:38;97297.28;;;18.03;83.15
9281;BME280;4679;47.966;7.958;2022-10-16T09:27:42;97309.56;;;18.09;83.03
9281;BME280;4679;47.966;7.958;2022-10-16T09:29:45;97306.59;;;18.11;82.93
9281;BME280;4679;47.966;7.958;2022-10-16T09:31:47;97309.75;;;18.18;83.03
9281;BME280;4679;47.966;7.958;2022-10-16T09:33:53;97317.09;;;18.31;83.11
9281;BME280;4679;47.966;7.958;2022-10-16T09:35:56;97315.81;;;18.47;82.21
9281;BME280;4679;47.966;7.958;2022-10-16T09:37:59;97313.22;;;18.80;81.50
9281;BME280;4679;47.966;7.958;2022-10-16T09:40:01;97316.47;;;19.14;80.56
9281;BME280;4679;47.966;7.958;2022-10-16T09:42:04;97318.03;;;19.34;80.06
9281;BME280;4679;47.966;7.958;2022-10-16T09:44:16;97314.53;;;19.33;80.25
9281;BME280;4679;47.966;7.958;2022-10-16T09:46:24;97319.13;;;19.33;80.08
9281;BME280;4679;47.966;7.958;2022-10-16T09:48:30;97311.84;;;19.33;79.83
9281;BME280;4679;47.966;7.958;2022-10-16T09:50:33;97317.94;;;19.39;79.65
9281;BME280;4679;47.966;7.958;2022-10-16T09:52:35;97312.53;;;19.72;78.91
9281;BME280;4679;47.966;7.958;2022-10-16T09:54:36;97313.56;;;19.76;78.29
9281;BME280;4679;47.966;7.958;2022-10-16T09:56:38;97315.84;;;19.69;78.41
9281;BME280;4679;47.966;7.958;2022-10-16T09:58:49;97316.25;;;19.76;78.35
9281;BME280;4679;47.966;7.958;2022-10-16T10:00:53;97320.97;;;19.84;77.84
9281;BME280;4679;47.966;7.958;2022-10-16T10:02:55;97318.16;;;19.89;77.38
9281;BME280;4679;47.966;7.958;2022-10-16T10:04:57;97322.06;;;19.96;77.35
9281;BME280;4679;47.966;7.958;2022-10-16T10:06:58;97324.25;;;20.08;76.80
9281;BME280;4679;47.966;7.958;2022-10-16T10:09:04;97320.75;;;20.21;76.36
9281;BME280;4679;47.966;7.958;2022-10-16T10:11:07;97326.84;;;20.54;75.20
9281;BME280;4679;47.966;7.958;2022-10-16T10:13:17;97321.97;;;20.79;74.89
9281;BME280;4679;47.966;7.958;2022-10-16T10:15:22;97318.63;;;20.95;74.29
9281;BME280;4679;47.966;7.958;2022-10-16T10:17:26;97314.47;;;21.12;73.83
9281;BME280;4679;47.966;7.958;2022-10-16T10:19:28;97313.25;;;21.18;73.64
9281;BME280;4679;47.966;7.958;2022-10-16T10:21:32;97314.44;;;21.25;73.32
9281;BME280;4679;47.966;7.958;2022-10-16T10:23:34;97312.03;;;21.46;72.57
9281;BME280;4679;47.966;7.958;2022-10-16T10:25:47;97307.16;;;21.57;72.23
9281;BME280;4679;47.966;7.958;2022-10-16T10:28:13;97311.22;;;21.68;71.82
9281;BME280;4679;47.966;7.958;2022-10-16T10:30:22;97301.06;;;21.73;71.35
9281;BME280;4679;47.966;7.958;2022-10-16T10:32:29;97313.47;;;21.74;71.14
9281;BME280;4679;47.966;7.958;2022-10-16T10:34:42;97304.56;;;21.74;71.11
9281;BME280;4679;47.966;7.958;2022-10-16T10:36:52;97305.03;;;21.76;70.68
9281;BME280;4679;47.966;7.958;2022-10-16T10:38:58;97308.41;;;21.82;70.53
9281;BME280;4679;47.966;7.958;2022-10-16T10:41:18;97309.38;;;21.86;70.03
9281;BME280;4679;47.966;7.958;2022-10-16T10:43:37;97312.13;;;21.94;70.02
9281;BME280;4679;47.966;7.958;2022-10-16T10:45:46;97307.38;;;22.00;69.36
9281;BME280;4679;47.966;7.958;2022-10-16T10:47:59;97304.69;;;22.00;69.23
9281;BME280;4679;47.966;7.958;2022-10-16T10:50:10;97307.03;;;21.93;69.42
9281;BME280;4679;47.966;7.958;2022-10-16T10:52:34;97307.94;;;21.88;69.19
9281;BME280;4679;47.966;7.958;2022-10-16T10:54:41;97298.91;;;21.84;69.16
9281;BME280;4679;47.966;7.958;2022-10-16T10:56:50;97300.16;;;21.87;68.93
9281;BME280;4679;47.966;7.958;2022-10-16T10:59:04;97304.25;;;22.06;67.99
9281;BME280;4679;47.966;7.958;2022-10-16T11:01:13;97297.28;;;22.14;67.68
9281;BME280;4679;47.966;7.958;2022-10-16T11:03:41;97297.00;;;22.24;67.15
9281;BME280;4679;47.966;7.958;2022-10-16T11:05:45;97292.56;;;22.28;66.55
9281;BME280;4679;47.966;7.958;2022-10-16T11:07:57;97285.38;;;22.32;66.49
9281;BME280;4679;47.966;7.958;2022-10-16T11:10:03;97283.03;;;22.39;66.02
9281;BME280;4679;47.966;7.958;2022-10-16T11:12:14;97284.63;;;22.49;65.43
9281;BME280;4679;47.966;7.958;2022-10-16T11:14:20;97285.94;;;22.60;64.98
9281;BME280;4679;47.966;7.958;2022-10-16T11:16:27;97285.13;;;22.60;64.87
9281;BME280;4679;47.966;7.958;2022-10-16T11:18:35;97278.59;;;22.52;64.93
9281;BME280;4679;47.966;7.958;2022-10-16T11:20:45;97279.84;;;22.55;64.64
9281;BME280;4679;47.966;7.958;2022-10-16T11:22:52;97277.81;;;22.60;64.27
9281;BME280;4679;47.966;7.958;2022-10-16T11:25:02;97288.97;;;22.76;64.07
9281;BME280;4679;47.966;7.958;2022-10-16T11:27:08;97282.13;;;22.96;62.91
9281;BME280;4679;47.966;7.958;2022-10-16T11:29:16;97283.25;;;23.03;62.61
9281;BME280;4679;47.966;7.958;2022-10-16T11:31:24;97279.72;;;23.11;62.07
9281;BME280;4679;47.966;7.958;2022-10-16T11:33:32;97290.06;;;23.27;61.53
9281;BME280;4679;47.966;7.958;2022-10-16T11:35:42;97286.69;;;23.38;61.08
9281;BME280;4679;47.966;7.958;2022-10-16T11:37:48;97282.72;;;23.36;60.67
9281;BME280;4679;47.966;7.958;2022-10-16T11:39:52;97278.59;;;23.12;60.95
9281;BME280;4679;47.966;7.958;2022-10-16T11:42:03;97276.72;;;22.96;61.27
9281;BME280;4679;47.966;7.958;2022-10-16T11:44:16;97275.63;;;22.88;60.95
9281;BME280;4679;47.966;7.958;2022-10-16T11:46:22;97273.84;;;22.92;60.67
9281;BME280;4679;47.966;7.958;2022-10-16T11:48:31;97272.88;;;22.97;60.32
9281;BME280;4679;47.966;7.958;2022-10-16T11:50:37;97276.06;;;22.99;60.35
9281;BME280;4679;47.966;7.958;2022-10-16T11:52:45;97275.09;;;23.21;59.76
9281;BME280;4679;47.966;7.958;2022-10-16T11:54:55;97283.19;;;23.38;59.34
9281;BME280;4679;47.966;7.958;2022-10-16T11:57:03;97281.41;;;23.42;59.13
9281;BME280;4679;47.966;7.958;2022-10-16T11:59:19;97281.41;;;23.42;58.98
9281;BME280;4679;47.966;7.958;2022-10-16T12:01:28;97290.19;;;23.47;58.83
9281;BME280;4679;47.966;7.958;2022-10-16T12:03:40;97286.69;;;23.47;58.48
9281;BME280;4679;47.966;7.958;2022-10-16T12:05:55;97282.38;;;23.55;58.25
9281;BME280;4679;47.966;7.958;2022-10-16T12:08:06;97282.03;;;23.56;57.92
9281;BME280;4679;47.966;7.958;2022-10-16T12:10:19;97291.78;;;23.57;57.78
9281;BME280;4679;47.966;7.958;2022-10-16T12:12:26;97284.53;;;23.78;57.13
9281;BME280;4679;47.966;7.958;2022-10-16T12:14:36;97280.63;;;23.97;56.64
9281;BME280;4679;47.966;7.958;2022-10-16T12:16:50;97274.44;;;23.88;56.02
9281;BME280;4679;47.966;7.958;2022-10-16T12:19:11;97269.66;;;23.84;56.60
9281;BME280;4679;47.966;7.958;2022-10-16T12:21:14;97270.59;;;23.97;55.77
9281;BME280;4679;47.966;7.958;2022-10-16T12:23:20;97275.22;;;23.97;55.59
9281;BME280;4679;47.966;7.958;2022-10-16T12:25:26;97269.97;;;23.92;55.59
9281;BME280;4679;47.966;7.958;2022-10-16T12:27:30;97266.78;;;23.90;55.23
9281;BME280;4679;47.966;7.958;2022-10-16T12:29:35;97270.13;;;23.87;55.41
9281;BME280;4679;47.966;7.958;2022-10-16T12:31:42;97261.53;;;23.84;55.09
9281;BME280;4679;47.966;7.958;2022-10-16T12:33:56;97260.00;;;23.75;55.01
9281;BME280;4679;47.966;7.958;2022-10-16T12:36:02;97267.63;;;23.81;54.79
9281;BME280;4679;47.966;7.958;2022-10-16T12:38:07;97260.94;;;23.79;54.72
9281;BME280;4679;47.966;7.958;2022-10-16T12:40:15;97264.72;;;23.87;54.59
9281;BME280;4679;47.966;7.958;2022-10-16T12:42:34;97262.72;;;24.04;54.08
9281;BME280;4679;47.966;7.958;2022-10-16T12:44:36;97257.84;;;24.18;53.38
9281;BME280;4679;47.966;7.958;2022-10-16T12:46:39;97262.63;;;24.22;53.33
9281;BME280;4679;47.966;7.958;2022-10-16T12:48:42;97253.63;;;24.09;53.59
9281;BME280;4679;47.966;7.958;2022-10-16T12:50:46;97250.59;;;24.10;53.47
9281;BME280;4679;47.966;7.958;2022-10-16T12:52:49;97249.31;;;24.08;53.47
9281;BME280;4679;47.966;7.958;2022-10-16T12:54:51;97251.72;;;24.01;53.28
9281;BME280;4679;47.966;7.958;2022-10-16T12:57:04;97250.59;;;24.10;53.13
9281;BME280;4679;47.966;7.958;2022-10-16T12:59:16;97247.88;;;24.10;53.21
9281;BME280;4679;47.966;7.958;2022-10-16T13:01:32;97242.44;;;24.10;52.99
9281;BME280;4679;47.966;7.958;2022-10-16T13:03:48;97248.59;;;24.19;52.61
9281;BME280;4679;47.966;7.958;2022-10-16T13:06:07;97242.38;;;24.28;52.44
9281;BME280;4679;47.966;7.958;2022-10-16T13:08:28;97246.00;;;24.32;52.29
9281;BME280;4679;47.966;7.958;2022-10-16T13:10:40;97242.16;;;24.33;52.22
9281;BME280;4679;47.966;7.958;2022-10-16T13:12:59;97235.56;;;24.42;52.02
9281;BME280;4679;47.966;7.958;2022-10-16T13:15:28;97235.81;;;24.49;51.71
9281;BME280;4679;47.966;7.958;2022-10-16T13:17:41;97244.34;;;24.60;51.32
9281;BME280;4679;47.966;7.958;2022-10-16T13:19:50;97244.34;;;24.60;51.55
9281;BME280;4679;47.966;7.958;2022-10-16T13:22:01;97239.81;;;24.52;51.69
9281;BME280;4679;47.966;7.958;2022-10-16T13:24:16;97240.13;;;24.50;51.21
9281;BME280;4679;47.966;7.958;2022-10-16T13:26:26;97247.75;;;24.57;51.35
9281;BME280;4679;47.966;7.958;2022-10-16T13:28:33;97243.75;;;24.75;50.99
9281;BME280;4679;47.966;7.958;2022-10-16T13:30:39;97236.25;;;24.93;50.80
9281;BME280;4679;47.966;7.958;2022-10-16T13:32:45;97244.16;;;25.07;50.11
9281;BME280;4679;47.966;7.958;2022-10-16T13:34:48;97246.88;;;24.86;50.54
9281;BME280;4679;47.966;7.958;2022-10-16T13:36:51;97243.84;;;24.67;51.25
9281;BME280;4679;47.966;7.958;2022-10-16T13:39:10;97236.22;;;24.60;51.06
9281;BME280;4679;47.966;7.958;2022-10-16T13:41:15;97236.63;;;24.71;50.87
9281;BME280;4679;47.966;7.958;2022-10-16T13:43:18;97244.78;;;24.71;51.04
9281;BME280;4679;47.966;7.958;2022-10-16T13:45:23;97241.84;;;24.76;51.45
9281;BME280;4679;47.966;7.958;2022-10-16T13:47:26;97238.94;;;24.81;51.18
9281;BME280;4679;47.966;7.958;2022-10-16T13:49:28;97243.50;;;24.89;50.53
9281;BME280;4679;47.966;7.958;2022-10-16T13:51:31;97234.09;;;24.66;51.23
9281;BME280;4679;47.966;7.958;2022-10-16T13:53:34;97237.81;;;24.61;50.96
9281;BME280;4679;47.966;7.958;2022-10-16T13:55:38;97241.22;;;24.58;50.98
9281;BME280;4679;47.966;7.958;2022-10-16T13:57:40;97245.63;;;24.63;51.47
9281;BME280;4679;47.966;7.958;2022-10-16T13:59:43;97248.59;;;24.70;51.18
9281;BME280;4679;47.966;7.958;2022-10-16T14:01:45;97246.97;;;24.57;51.11
9281;BME280;4679;47.966;7.958;2022-10-16T14:03:47;97243.50;;;24.47;51.51
9281;BME280;4679;47.966;7.958;2022-10-16T14:05:51;97241.44;;;24.65;50.72
9281;BME280;4679;47.966;7.958;2022-10-16T14:07:54;97244.03;;;24.82;50.75
9281;BME280;4679;47.966;7.958;2022-10-16T14:10:00;97241.38;;;24.95;50.04
9281;BME280;4679;47.966;7.958;2022-10-16T14:12:09;97247.22;;;25.05;50.41
9281;BME280;4679;47.966;7.958;2022-10-16T14:14:12;97238.16;;;25.01;50.32
9281;BME280;4679;47.966;7.958;2022-10-16T14:16:17;97248.41;;;24.96;50.41
9281;BME280;4679;47.966;7.958;2022-10-16T14:18:21;97249.53;;;24.74;50.17
9281;BME280;4679;47.966;7.958;2022-10-16T14:20:26;97254.22;;;24.65;50.67
9281;BME280;4679;47.966;7.958;2022-10-16T14:22:32;97250.38;;;24.66;50.53
9281;BME280;4679;47.966;7.958;2022-10-16T14:24:35;97241.41;;;24.74;50.76
9281;BME280;4679;47.966;7.958;2022-10-16T14:26:41;97244.13;;;24.74;50.76
9281;BME280;4679;47.966;7.958;2022-10-16T14:28:46;97246.22;;;24.68;50.46
9281;BME280;4679;47.966;7.958;2022-10-16T14:30:50;97246.09;;;24.65;50.66
9281;BME280;4679;47.966;7.958;2022-10-16T14:32:54;97241.25;;;24.70;50.33
9281;BME280;4679;47.966;7.958;2022-10-16T14:34:57;97253.38;;;24.73;50.33
9281;BME280;4679;47.966;7.958;2022-10-16T14:37:00;97252.16;;;24.62;51.03
9281;BME280;4679;47.966;7.958;2022-10-16T14:39:17;97249.22;;;24.54;51.37
9281;BME280;4679;47.966;7.958;2022-10-16T14:41:21;97246.97;;;24.57;51.41
9281;BME280;4679;47.966;7.958;2022-10-16T14:43:29;97244.16;;;24.44;51.43
9281;BME280;4679;47.966;7.958;2022-10-16T14:45:35;97241.59;;;24.27;51.67
9281;BME280;4679;47.966;7.958;2022-10-16T14:47:47;97245.88;;;24.28;51.85
9281;BME280;4679;47.966;7.958;2022-10-16T14:49:50;97242.63;;;24.35;51.99
9281;BME280;4679;47.966;7.958;2022-10-16T14:51:53;97248.81;;;24.44;51.91
9281;BME280;4679;47.966;7.958;2022-10-16T14:53:55;97235.28;;;24.35;51.84
9281;BME280;4679;47.966;7.958;2022-10-16T14:55:56;97241.38;;;24.32;52.24
9281;BME280;4679;47.966;7.958;2022-10-16T14:57:58;97239.28;;;24.38;52.34
9281;BME280;4679;47.966;7.958;2022-10-16T15:00:00;97247.00;;;24.48;52.54
9281;BME280;4679;47.966;7.958;2022-10-16T15:02:27;97252.97;;;24.41;52.83
9281;BME280;4679;47.966;7.958;2022-10-16T15:04:29;97253.69;;;24.21;53.50
9281;BME280;4679;47.966;7.958;2022-10-16T15:06:31;97254.75;;;24.08;53.71
9281;BME280;4679;47.966;7.958;2022-10-16T15:08:33;97262.41;;;24.06;54.00
9281;BME280;4679;47.966;7.958;2022-10-16T15:10:38;97261.28;;;24.07;54.20
9281;BME280;4679;47.966;7.958;2022-10-16T15:12:41;97263.06;;;24.03;54.17
9281;BME280;4679;47.966;7.958;2022-10-16T15:14:43;97269.47;;;23.98;54.69
9281;BME280;4679;47.966;7.958;2022-10-16T15:16:44;97262.00;;;23.87;54.82
9281;BME280;4679;47.966;7.958;2022-10-16T15:18:48;97256.53;;;23.66;55.20
9281;BME280;4679;47.966;7.958;2022-10-16T15:20:50;97265.78;;;23.56;55.54
9281;BME280;4679;47.966;7.958;2022-10-16T15:22:52;97269.78;;;23.50;55.76
9281;BME280;4679;47.966;7.958;2022-10-16T15:24:54;97277.91;;;23.50;55.65
9281;BME280;4679;47.966;7.958;2022-10-16T15:26:55;97265.00;;;23.47;55.89
9281;BME280;4679;47.966;7.958;2022-10-16T15:28:57;97276.00;;;23.42;56.22
9281;BME280;4679;47.966;7.958;2022-10-16T15:30:59;97270.31;;;23.35;56.09
9281;BME280;4679;47.966;7.958;2022-10-16T15:33:01;97266.19;;;23.20;56.56
9281;BME280;4679;47.966;7.958;2022-10-16T15:35:07;97272.09;;;23.13;56.71
9281;BME280;4679;47.966;7.958;2022-10-16T15:37:09;97263.50;;;22.94;56.94
9281;BME280;4679;47.966;7.958;2022-10-16T15:39:14;97265.56;;;22.80;57.39
9281;BME280;4679;47.966;7.958;2022-10-16T15:41:16;97263.16;;;22.70;57.58
9281;BME280;4679;47.966;7.958;2022-10-16T15:43:18;97269.53;;;22.57;57.91
9281;BME280;4679;47.966;7.958;2022-10-16T15:45:20;97268.22;;;22.37;58.25
9281;BME280;4679;47.966;7.958;2022-10-16T15:47:21;97279.31;;;22.18;58.46
9281;BME280;4679;47.966;7.958;2022-10-16T15:49:23;97287.69;;;21.99;58.93
9281;BME280;4679;47.966;7.958;2022-10-16T15:51:27;97279.81;;;21.81;59.27
9281;BME280;4679;47.966;7.958;2022-10-16T15:53:29;97279.91;;;21.67;59.72
9281;BME280;4679;47.966;7.958;2022-10-16T15:55:31;97276.66;;;21.56;60.01
9281;BME280;4679;47.966;7.958;2022-10-16T15:57:33;97282.81;;;21.48;59.96
9281;BME280;4679;47.966;7.958;2022-10-16T15:59:34;97286.94;;;21.46;60.18
9281;BME280;4679;47.966;7.958;2022-10-16T16:01:36;97290.06;;;21.39;60.11
9281;BME280;4679;47.966;7.958;2022-10-16T16:03:38;97291.56;;;21.23;60.73
9281;BME280;4679;47.966;7.958;2022-10-16T16:05:41;97294.13;;;21.05;61.23
9281;BME280;4679;47.966;7.958;2022-10-16T16:07:44;97302.75;;;20.94;61.55
9281;BME280;4679;47.966;7.958;2022-10-16T16:09:45;97299.69;;;20.87;61.96
9281;BME280;4679;47.966;7.958;2022-10-16T16:11:48;97305.50;;;20.80;61.95
9281;BME280;4679;47.966;7.958;2022-10-16T16:13:52;97302.53;;;20.68;62.51
9281;BME280;4679;47.966;7.958;2022-10-16T16:15:55;97301.16;;;20.57;62.52
9281;BME280;4679;47.966;7.958;2022-10-16T16:17:57;97302.16;;;20.47;62.74
9281;BME280;4679;47.966;7.958;2022-10-16T16:19:59;97305.59;;;20.39;62.96
9281;BME280;4679;47.966;7.958;2022-10-16T16:22:00;97300.78;;;20.36;63.07
9281;BME280;4679;47.966;7.958;2022-10-16T16:24:04;97308.66;;;20.32;63.09
9281;BME280;4679;47.966;7.958;2022-10-16T16:26:11;97310.19;;;20.11;63.78
9281;BME280;4679;47.966;7.958;2022-10-16T16:28:13;97307.38;;;20.02;64.05
9281;BME280;4679;47.966;7.958;2022-10-16T16:30:15;97310.69;;;19.99;64.25
9281;BME280;4679;47.966;7.958;2022-10-16T16:32:19;97319.53;;;19.86;64.34
9281;BME280;4679;47.966;7.958;2022-10-16T16:34:21;97312.97;;;19.79;64.72
9281;BME280;4679;47.966;7.958;2022-10-16T16:36:22;97317.84;;;19.77;64.98
9281;BME280;4679;47.966;7.958;2022-10-16T16:38:25;97314.94;;;19.73;65.10
9281;BME280;4679;47.966;7.958;2022-10-16T16:40:29;97323.63;;;19.70;65.26
9281;BME280;4679;47.966;7.958;2022-10-16T16:42:31;97324.50;;;19.52;65.64
9281;BME280;4679;47.966;7.958;2022-10-16T16:44:32;97327.53;;;19.45;65.43
9281;BME280;4679;47.966;7.958;2022-10-16T16:46:36;97326.84;;;19.21;66.24
9281;BME280;4679;47.966;7.958;2022-10-16T16:48:40;97338.56;;;19.11;66.81
9281;BME280;4679;47.966;7.958;2022-10-16T16:50:42;97329.34;;;18.98;67.05
9281;BME280;4679;47.966;7.958;2022-10-16T16:52:44;97339.53;;;18.83;67.46
9281;BME280;4679;47.966;7.958;2022-10-16T16:54:47;97335.03;;;18.78;67.83
9281;BME280;4679;47.966;7.958;2022-10-16T16:56:53;97339.91;;;18.76;67.87
9281;BME280;4679;47.966;7.958;2022-10-16T16:58:56;97338.44;;;18.65;68.09
9281;BME280;4679;47.966;7.958;2022-10-16T17:00:58;97347.66;;;18.59;68.35
9281;BME280;4679;47.966;7.958;2022-10-16T17:03:02;97342.28;;;18.59;68.67
9281;BME280;4679;47.966;7.958;2022-10-16T17:05:04;97346.97;;;18.48;68.85
9281;BME280;4679;47.966;7.958;2022-10-16T17:07:06;97352.03;;;18.50;69.08
9281;BME280;4679;47.966;7.958;2022-10-16T17:09:08;97363.16;;;18.43;69.25
9281;BME280;4679;47.966;7.958;2022-10-16T17:11:15;97354.91;;;18.35;69.34
9281;BME280;4679;47.966;7.958;2022-10-16T17:13:18;97369.00;;;18.26;69.40
9281;BME280;4679;47.966;7.958;2022-10-16T17:15:20;97363.56;;;18.08;70.10
9281;BME280;4679;47.966;7.958;2022-10-16T17:17:21;97376.81;;;17.99;70.66
9281;BME280;4679;47.966;7.958;2022-10-16T17:19:23;97374.97;;;17.95;70.68
9281;BME280;4679;47.966;7.958;2022-10-16T17:21:25;97369.44;;;17.86;70.94
9281;BME280;4679;47.966;7.958;2022-10-16T17:23:29;97373.22;;;17.85;71.17
9281;BME280;4679;47.966;7.958;2022-10-16T17:25:31;97375.94;;;17.80;71.36
9281;BME280;4679;47.966;7.958;2022-10-16T17:27:36;97379.94;;;17.82;71.27
9281;BME280;4679;47.966;7.958;2022-10-16T17:29:39;97382.41;;;17.74;71.58
9281;BME280;4679;47.966;7.958;2022-10-16T17:31:41;97380.59;;;17.69;71.98